This is the latest recevied weather packets stored in our database for station/object DC1MAK-13. If no packets are shown the sender has not sent any weather packets the latest 1 day(s).
| Time | Temp. | Humidity | Pressure | Rain* | Wind** | Luminosity | Snow |
|---|---|---|---|---|---|---|---|
| 1778062246 | 17.78° C | 61% | 977.1 hPa | - | - | - | - |
| 1778061942 | 17.78° C | 61% | 977.1 hPa | - | - | - | - |
| 1778061339 | 17.78° C | 59% | 977.2 hPa | - | - | - | - |
| 1778060728 | 18.33° C | 55% | 977.2 hPa | - | - | - | - |
| 1778060424 | 18.89° C | 59% | 977.2 hPa | - | - | - | - |
| 1778059819 | 18.89° C | 60% | 977.1 hPa | - | - | - | - |
| 1778059519 | 17.78° C | 63% | 977.1 hPa | - | - | - | - |
| 1778059210 | 17.78° C | 65% | 977.2 hPa | - | - | - | - |
| 1778057999 | 16.67° C | 68% | 977.1 hPa | - | - | - | - |
| 1778057692 | 16.67° C | 70% | 977 hPa | - | - | - | - |
| 1778057388 | 16.67° C | 71% | 977 hPa | - | - | - | - |
| 1778056479 | 16.11° C | 71% | 977.1 hPa | - | - | - | - |
| 1778056179 | 16.11° C | 71% | 977.1 hPa | - | - | - | - |
| 1778055870 | 16.11° C | 70% | 977.1 hPa | - | - | - | - |
| 1778055263 | 15.56° C | 73% | 977.1 hPa | - | - | - | - |
| 1778054659 | 15° C | 80% | 977.2 hPa | - | - | - | - |
| 1778054352 | 15° C | 81% | 977.2 hPa | - | - | - | - |
| 1778053745 | 15° C | 78% | 977.3 hPa | - | - | - | - |
| 1778053139 | 15.56° C | 73% | 977.3 hPa | - | - | - | - |
| 1778052839 | 15° C | 75% | 977.4 hPa | - | - | - | - |
| 1778052227 | 14.44° C | 78% | 977.4 hPa | - | - | - | - |
| 1778051319 | 14.44° C | 81% | 977.4 hPa | - | - | - | - |
| 1778050709 | 14.44° C | 80% | 977.3 hPa | - | - | - | - |
| 1778049191 | 13.89° C | 85% | 977.2 hPa | - | - | - | - |
| 1778048584 | 12.22° C | 93% | 977.2 hPa | - | - | - | - |
* Rain since midnight (hover to see other rain measurements)
** Current wind speed in m/s (hover to see current wind gust speed)